Time;durP1;ratioP1;P1;durP2;ratioP2;P2;SDS_P1;SDS_P2;PMS_P1;PMS_P2;Temp;Humidity;BMP_temperature;BMP_pressure;BME280_temperature;BME280_humidity;BME280_pressure;Samples;Min_cycle;Max_cycle;Signal;HPM_P1;HPM_P2
2022/05/16 00:01:19;;;;;;;;;4.75;4.75;;;;;25.76;50.01;101071.66;4994899;28;49816;-77
2022/05/16 00:03:44;;;;;;;;;3.00;3.00;;;;;25.65;50.31;101044.25;4993994;28;49710;-81
2022/05/16 00:06:09;;;;;;;;;2.50;2.50;;;;;25.66;49.79;101046.88;4994540;28;49911;-73
2022/05/16 00:08:35;;;;;;;;;3.00;3.00;;;;;25.54;50.15;101023.16;4994510;28;50431;-73
2022/05/16 00:11:00;;;;;;;;;3.00;3.00;;;;;25.78;49.88;101068.94;4994043;28;49787;-81
2022/05/16 00:13:25;;;;;;;;;5.25;3.75;;;;;25.52;49.77;101051.03;4994570;28;49710;-71
2022/05/16 00:15:51;;;;;;;;;3.25;3.25;;;;;25.61;49.84;101075.75;4994803;28;50278;-77
2022/05/16 00:18:17;;;;;;;;;3.75;3.75;;;;;25.65;50.10;101063.06;4994340;28;50677;-78
2022/05/16 00:20:42;;;;;;;;;3.50;3.50;;;;;25.79;49.58;101094.88;4993847;28;49802;-81
2022/05/16 00:23:07;;;;;;;;;6.25;6.25;;;;;25.78;49.90;101083.25;4994120;28;49694;-74
2022/05/16 00:25:33;;;;;;;;;3.25;3.25;;;;;25.61;49.59;101040.81;4994447;28;49856;-74
2022/05/16 00:27:58;;;;;;;;;4.00;4.00;;;;;25.79;49.56;101065.31;4994093;28;50404;-76
2022/05/16 00:30:23;;;;;;;;;4.75;3.00;;;;;25.64;49.93;101029.06;4993909;28;49844;-72
2022/05/16 00:32:49;;;;;;;;;4.25;4.25;;;;;25.80;49.44;101064.38;4994375;28;49909;-78
2022/05/16 00:35:17;;;;;;;;;2.75;2.75;;;;;25.75;49.66;101051.06;4994597;28;49644;-72
2022/05/16 00:37:43;;;;;;;;;4.25;3.50;;;;;25.45;49.62;100983.16;4987907;28;49836;-71
2022/05/16 00:40:09;;;;;;;;;4.00;4.00;;;;;25.80;49.33;101051.78;4993763;28;49871;-72
2022/05/16 00:42:35;;;;;;;;;2.75;2.75;;;;;25.81;49.59;101048.16;4993972;28;49603;-73
2022/05/16 00:45:00;;;;;;;;;4.50;4.50;;;;;25.78;49.58;101056.34;4993858;28;50559;-70
2022/05/16 00:47:26;;;;;;;;;4.25;4.00;;;;;25.80;49.53;101070.63;4993812;28;51265;-84
2022/05/16 00:49:53;;;;;;;;;3.75;3.75;;;;;25.81;49.55;101056.22;4993366;28;49626;-74
2022/05/16 00:52:30;;;;;;;;;4.00;4.00;;;;;25.81;49.67;101052.66;4993803;28;49867;-72
2022/05/16 00:54:59;;;;;;;;;4.00;4.00;;;;;25.81;49.49;101050.84;4993178;28;49741;-74
2022/05/16 00:57:31;;;;;;;;;2.75;2.75;;;;;25.64;49.11;101010.25;4986857;28;50327;-74
2022/05/16 01:00:11;;;;;;;;;3.25;3.25;;;;;25.81;49.23;101041.91;4987946;28;49889;-78
2022/05/16 01:05:26;;;;;;;;;6.00;6.00;;;;;25.51;49.43;100971.31;4993593;28;49835;-72
2022/05/16 01:07:52;;;;;;;;;3.75;3.75;;;;;25.82;49.23;101023.03;4992534;28;49756;-73
2022/05/16 01:10:21;;;;;;;;;4.75;3.75;;;;;25.81;49.38;101028.47;4975338;28;50274;-72
2022/05/16 01:12:49;;;;;;;;;4.00;4.00;;;;;25.75;49.29;101017.94;4993730;28;49695;-72
2022/05/16 01:15:26;;;;;;;;;6.00;4.75;;;;;25.82;49.02;101032.91;4993367;28;49743;-74
2022/05/16 01:17:52;;;;;;;;;4.50;4.50;;;;;25.79;49.60;101035.72;4993226;28;49804;-75
2022/05/16 01:20:17;;;;;;;;;3.00;3.00;;;;;25.77;49.52;101035.78;4975198;28;49886;-75
2022/05/16 01:22:46;;;;;;;;;5.00;3.25;;;;;25.68;49.10;101017.28;4991785;28;49812;-72
2022/05/16 01:25:21;;;;;;;;;3.00;2.25;;;;;25.82;49.48;101033.78;4993567;28;49730;-72
2022/05/16 01:27:50;;;;;;;;;4.50;4.00;;;;;25.82;48.96;101043.66;4993239;28;50470;-77
2022/05/16 01:30:23;;;;;;;;;3.25;3.25;;;;;25.82;49.24;101049.03;4993115;28;49869;-75
2022/05/16 01:32:49;;;;;;;;;3.25;3.25;;;;;25.73;49.06;101034.13;4987515;28;49703;-75
2022/05/16 01:35:20;;;;;;;;;5.25;5.25;;;;;25.69;49.15;101008.28;4993636;28;49663;-73
2022/05/16 01:40:29;;;;;;;;;3.75;3.75;;;;;25.83;49.41;101048.09;4992915;28;49574;-77
2022/05/16 01:42:55;;;;;;;;;3.75;3.75;;;;;25.82;49.41;101066.06;4992902;28;50035;-76
2022/05/16 01:45:20;;;;;;;;;2.75;2.00;;;;;25.82;49.44;101063.38;4993409;28;49849;-78
2022/05/16 01:47:46;;;;;;;;;3.00;3.00;;;;;25.68;49.13;101036.09;4993203;28;50433;-76
2022/05/16 01:50:11;;;;;;;;;2.50;2.50;;;;;25.83;48.93;101050.78;4992191;28;49832;-80
2022/05/16 01:52:36;;;;;;;;;3.50;3.50;;;;;25.71;49.03;101021.69;4993234;28;50273;-75
2022/05/16 01:55:02;;;;;;;;;1.75;1.75;;;;;25.69;49.20;101022.59;4993157;28;49892;-82
2022/05/16 01:57:27;;;;;;;;;2.75;2.75;;;;;25.67;48.98;101026.25;4992588;28;49812;-75
2022/05/16 01:59:53;;;;;;;;;2.25;2.25;;;;;25.82;48.71;101051.72;4993431;28;49671;-73
2022/05/16 02:02:18;;;;;;;;;2.25;2.25;;;;;25.74;48.70;101040.38;4992647;28;49717;-80
2022/05/16 02:04:43;;;;;;;;;4.25;4.25;;;;;25.67;49.24;101048.66;4992537;28;49821;-73
2022/05/16 02:07:09;;;;;;;;;4.25;2.75;;;;;25.82;49.11;101067.88;4992582;28;49667;-73
2022/05/16 02:09:34;;;;;;;;;3.50;3.50;;;;;25.47;48.95;101010.84;4992862;28;49678;-73
2022/05/16 02:11:59;;;;;;;;;3.50;3.50;;;;;25.82;48.93;101071.44;4992509;28;49799;-79
2022/05/16 02:14:25;;;;;;;;;2.75;2.75;;;;;25.77;48.76;101068.06;4992931;28;49783;-76
2022/05/16 02:16:50;;;;;;;;;3.50;3.00;;;;;25.82;48.65;101073.25;4992867;28;50809;-79
2022/05/16 02:19:16;;;;;;;;;3.00;3.00;;;;;25.77;48.76;101062.69;4995516;28;49705;-80
2022/05/16 02:24:40;;;;;;;;;2.75;2.75;;;;;25.57;49.02;101030.22;4996319;28;49761;-80
2022/05/16 02:27:11;;;;;;;;;3.00;3.00;;;;;25.64;48.56;101040.69;4995952;28;49607;-81
2022/05/16 02:29:37;;;;;;;;;3.25;1.75;;;;;25.80;48.66;101069.75;4996217;28;49698;-79
2022/05/16 02:32:04;;;;;;;;;2.50;1.50;;;;;25.82;48.33;101065.19;4995955;28;49804;-82
2022/05/16 02:34:30;;;;;;;;;3.00;3.00;;;;;25.81;48.36;101069.69;4995844;28;49788;-72
2022/05/16 02:36:56;;;;;;;;;3.75;2.75;;;;;25.78;48.83;101060.88;4995962;28;49776;-72
2022/05/16 02:39:22;;;;;;;;;2.75;2.75;;;;;25.82;48.40;101070.56;4989892;28;49567;-83
2022/05/16 02:41:48;;;;;;;;;2.75;2.25;;;;;25.81;48.60;101080.44;4995977;28;49785;-77
2022/05/16 02:44:14;;;;;;;;;3.00;3.00;;;;;25.63;48.71;101044.31;4995884;28;50079;-81
2022/05/16 02:46:40;;;;;;;;;4.00;4.00;;;;;25.78;48.49;101066.25;4995667;28;49683;-77
2022/05/16 02:49:06;;;;;;;;;4.75;4.75;;;;;25.65;48.75;101058.56;4995688;28;49683;-76
2022/05/16 02:51:33;;;;;;;;;5.00;3.00;;;;;25.81;48.68;101091.19;4995513;28;50001;-83
2022/05/16 02:53:58;;;;;;;;;3.50;3.25;;;;;25.76;48.15;101082.41;4995980;28;49575;-81
2022/05/16 02:56:23;;;;;;;;;2.75;2.75;;;;;25.77;48.15;101084.19;4995425;28;49887;-79
2022/05/16 02:58:49;;;;;;;;;3.50;3.50;;;;;25.46;48.31;101035.97;4995940;28;49801;-77
2022/05/16 03:01:14;;;;;;;;;4.50;4.50;;;;;25.70;48.89;101088.03;4995016;28;49611;-73
2022/05/16 03:03:40;;;;;;;;;7.00;6.00;;;;;25.54;49.76;101097.53;4995313;28;49557;-68
2022/05/16 03:06:07;;;;;;;;;9.25;8.00;;;;;25.32;49.84;101109.06;4995889;28;49525;-68
2022/05/16 03:08:33;;;;;;;;;10.75;8.25;;;;;25.08;50.56;101078.53;4995118;28;49572;-75
2022/05/16 03:10:58;;;;;;;;;9.00;9.00;;;;;24.74;50.90;101046.53;4994721;28;49636;-74
2022/05/16 03:13:24;;;;;;;;;8.75;8.75;;;;;24.81;51.41;101068.69;4995440;28;49766;-75
2022/05/16 03:15:50;;;;;;;;;10.50;9.00;;;;;24.87;51.47;101084.59;4994725;28;49772;-73
2022/05/16 03:18:16;;;;;;;;;12.00;10.25;;;;;24.58;51.88;101057.81;4995153;28;49764;-75
2022/05/16 03:20:41;;;;;;;;;11.00;9.25;;;;;24.65;52.51;101097.84;4994056;28;49919;-73
2022/05/16 03:23:07;;;;;;;;;9.00;9.00;;;;;24.58;52.43;101100.75;4995139;28;50012;-72
2022/05/16 03:25:32;;;;;;;;;10.50;10.50;;;;;24.47;52.65;101107.34;4994646;28;49957;-72
2022/05/16 03:27:58;;;;;;;;;10.25;10.25;;;;;24.21;52.96;101099.19;4993056;28;49748;-72
2022/05/16 03:30:24;;;;;;;;;9.50;8.75;;;;;24.25;53.68;101117.84;4992878;28;49701;-72
2022/05/16 03:32:49;;;;;;;;;12.00;11.50;;;;;24.09;53.98;101099.56;4990019;28;50036;-71
2022/05/16 03:35:15;;;;;;;;;9.00;8.50;;;;;24.16;53.94;101119.91;4994122;28;51370;-72
2022/05/16 03:37:40;;;;;;;;;12.50;11.50;;;;;24.14;54.17;101108.34;4994389;28;49856;-72
2022/05/16 03:42:51;;;;;;;;;10.75;10.75;;;;;24.11;54.18;101105.75;4994590;28;50528;-73
2022/05/16 03:45:16;;;;;;;;;12.00;11.00;;;;;24.01;54.20;101097.09;4994190;28;50580;-73
2022/05/16 03:47:42;;;;;;;;;12.75;11.00;;;;;24.05;54.49;101114.00;4994530;28;49674;-73
2022/05/16 03:50:08;;;;;;;;;9.50;9.50;;;;;23.81;54.78;101080.72;4994469;28;49967;-73
2022/05/16 03:52:34;;;;;;;;;12.25;11.50;;;;;23.58;54.77;101059.91;4994415;28;49944;-72
2022/05/16 03:54:59;;;;;;;;;12.00;11.00;;;;;23.84;55.17;101116.38;4987949;28;49818;-71
2022/05/16 03:57:25;;;;;;;;;12.50;12.50;;;;;23.79;55.38;101125.44;4994140;28;49694;-74
2022/05/16 03:59:50;;;;;;;;;13.75;12.75;;;;;23.66;55.32;101125.81;4994116;28;50410;-71
2022/05/16 04:02:16;;;;;;;;;11.25;10.75;;;;;23.33;55.48;101071.28;4993970;28;49662;-71
2022/05/16 04:04:41;;;;;;;;;15.00;14.25;;;;;23.67;55.69;101153.47;4993884;28;50248;-72
2022/05/16 04:07:06;;;;;;;;;13.00;11.50;;;;;23.48;56.01;101133.44;4994288;28;49642;-73
2022/05/16 04:09:32;;;;;;;;;13.50;13.00;;;;;23.39;56.09;101135.41;4994350;28;49649;-73
2022/05/16 04:11:58;;;;;;;;;11.00;11.00;;;;;23.46;56.54;101156.72;4993909;28;49780;-75
2022/05/16 04:14:23;;;;;;;;;15.50;15.50;;;;;23.54;56.36;101173.44;4989677;28;51183;-73
2022/05/16 04:16:49;;;;;;;;;14.25;14.25;;;;;23.52;56.40;101172.59;4994006;28;49716;-73
2022/05/16 04:19:14;;;;;;;;;15.25;15.25;;;;;23.02;56.44;101089.94;4993514;28;49866;-74
2022/05/16 04:21:39;;;;;;;;;15.25;13.25;;;;;23.44;56.51;101167.44;4994030;28;50019;-73
2022/05/16 04:24:06;;;;;;;;;19.50;15.75;;;;;23.41;56.59;101163.03;4992278;28;51249;-73
2022/05/16 04:26:32;;;;;;;;;14.25;13.00;;;;;23.48;56.61;101171.81;4993827;28;49716;-73
2022/05/16 04:28:57;;;;;;;;;16.00;15.50;;;;;23.47;57.20;101186.13;4993854;28;49948;-76
2022/05/16 04:31:24;;;;;;;;;18.25;14.00;;;;;23.29;56.93;101167.84;4993681;28;49963;-71
2022/05/16 04:33:49;;;;;;;;;14.75;13.00;;;;;23.32;57.05;101178.47;4993589;28;50621;-71
2022/05/16 04:36:14;;;;;;;;;14.25;14.25;;;;;23.35;57.08;101203.38;4993590;28;49710;-72
2022/05/16 04:38:40;;;;;;;;;14.50;12.25;;;;;23.34;57.35;101209.66;4993751;28;49742;-75
2022/05/16 04:43:51;;;;;;;;;15.75;13.75;;;;;23.28;57.36;101222.34;4993316;28;50064;-73
2022/05/16 04:46:16;;;;;;;;;15.50;15.50;;;;;23.28;57.57;101239.28;4993722;28;49842;-72
2022/05/16 04:48:43;;;;;;;;;13.25;12.75;;;;;23.26;57.22;101243.81;4993927;28;49716;-70
2022/05/16 04:51:10;;;;;;;;;14.00;12.25;;;;;23.22;57.71;101252.81;4993476;28;49896;-74
2022/05/16 04:53:35;;;;;;;;;16.50;14.75;;;;;23.14;57.73;101244.97;4993574;28;50961;-73
2022/05/16 04:56:01;;;;;;;;;14.25;11.75;;;;;23.19;58.20;101265.41;4974680;28;49877;-73
2022/05/16 04:58:26;;;;;;;;;18.25;17.25;;;;;23.17;58.52;101276.16;4993737;28;49686;-71
2022/05/16 05:00:52;;;;;;;;;16.50;16.50;;;;;23.16;58.15;101279.75;4993681;28;49737;-72
2022/05/16 05:03:17;;;;;;;;;14.00;13.00;;;;;23.17;58.02;101283.31;4993094;28;50221;-73
2022/05/16 05:05:42;;;;;;;;;18.25;17.25;;;;;23.03;58.52;101287.19;4993184;28;49783;-76
2022/05/16 05:08:08;;;;;;;;;19.75;19.00;;;;;22.65;59.32;101276.38;4993365;28;49883;-73
2022/05/16 05:16:12;;;;;;;;;19.00;16.75;;;;;21.88;62.75;101290.31;4993099;28;49773;-73
2022/05/16 05:18:39;;;;;;;;;22.25;20.75;;;;;21.75;63.55;101289.63;4992434;28;49690;-72
2022/05/16 05:21:06;;;;;;;;;19.75;19.75;;;;;21.51;64.40;101290.91;4991798;28;49924;-74
2022/05/16 05:23:33;;;;;;;;;23.50;21.75;;;;;21.55;65.39;101315.81;4991276;28;52413;-79
2022/05/16 05:25:59;;;;;;;;;20.25;20.25;;;;;21.52;66.04;101311.41;4993189;28;49868;-74
2022/05/16 05:28:24;;;;;;;;;19.25;17.50;;;;;21.36;66.34;101309.84;4992953;28;49864;-75
2022/05/16 05:30:50;;;;;;;;;30.50;24.00;;;;;21.22;66.70;101298.44;4993338;28;49764;-74
2022/05/16 05:33:15;;;;;;;;;20.00;19.00;;;;;20.80;66.95;101242.09;4974801;28;51633;-73
2022/05/16 05:35:41;;;;;;;;;17.75;15.75;;;;;21.11;67.00;101301.28;4992472;28;49844;-74
2022/05/16 05:38:06;;;;;;;;;19.50;17.25;;;;;20.86;67.35;101266.06;4992940;28;49829;-73
2022/05/16 05:40:32;;;;;;;;;23.00;20.75;;;;;21.16;67.82;101328.81;4993424;28;49737;-74
2022/05/16 05:43:05;;;;;;;;;19.75;17.75;;;;;21.20;68.04;101330.50;4992967;28;51483;-73
2022/05/16 05:45:31;;;;;;;;;20.00;18.00;;;;;21.26;67.60;101338.47;4992176;28;49579;-73
2022/05/16 05:47:56;;;;;;;;;18.25;17.25;;;;;21.34;67.57;101330.38;4992493;28;49884;-74
2022/05/16 05:50:21;;;;;;;;;18.25;17.25;;;;;21.41;67.16;101338.25;4992751;28;49805;-73
2022/05/16 05:52:47;;;;;;;;;18.50;17.25;;;;;21.43;66.37;101347.16;4993171;28;50465;-72
2022/05/16 05:55:12;;;;;;;;;24.50;18.25;;;;;21.43;66.35;101346.25;4995707;28;49833;-73
2022/05/16 05:57:38;;;;;;;;;18.25;16.75;;;;;21.14;66.63;101315.47;4994482;28;50035;-73
2022/05/16 06:00:05;;;;;;;;;17.75;17.75;;;;;21.44;66.65;101364.06;4993796;28;49704;-73
2022/05/16 06:02:31;;;;;;;;;21.75;19.00;;;;;21.50;66.33;101368.41;4994463;28;49860;-71
2022/05/16 06:04:56;;;;;;;;;20.00;19.00;;;;;21.32;66.21;101342.84;4994666;28;49714;-75
2022/05/16 06:07:22;;;;;;;;;18.00;18.00;;;;;21.02;65.78;101307.63;4994760;28;49782;-70
2022/05/16 06:09:47;;;;;;;;;18.00;16.50;;;;;21.18;66.00;101339.47;4994471;28;49899;-77
2022/05/16 06:12:12;;;;;;;;;17.25;17.25;;;;;21.41;65.50;101396.13;4994780;28;51000;-72
2022/05/16 06:14:38;;;;;;;;;24.00;20.25;;;;;21.50;65.44;101409.34;4995842;28;49879;-71
2022/05/16 06:17:04;;;;;;;;;15.75;15.75;;;;;21.52;65.61;101406.66;4995621;28;49834;-69
2022/05/16 06:19:30;;;;;;;;;19.00;16.75;;;;;21.17;66.01;101354.59;4995830;28;49729;-72
2022/05/16 06:21:55;;;;;;;;;20.75;20.50;;;;;21.39;65.21;101388.13;4995516;28;49807;-74
2022/05/16 06:27:06;;;;;;;;;20.25;20.25;;;;;21.35;65.31;101385.53;4996199;28;49808;-72
2022/05/16 06:29:31;;;;;;;;;17.25;15.75;;;;;21.52;65.32;101412.00;4996207;28;49984;-72
2022/05/16 06:31:57;;;;;;;;;18.25;17.75;;;;;21.40;65.25;101391.69;4995658;28;49730;-68
2022/05/16 06:34:22;;;;;;;;;24.25;17.50;;;;;21.59;65.31;101427.94;4978230;28;49813;-71
2022/05/16 06:36:48;;;;;;;;;18.50;17.50;;;;;21.18;65.01;101376.84;4995440;28;49784;-74
2022/05/16 06:39:14;;;;;;;;;12.50;12.00;;;;;21.51;63.95;101412.91;4996089;28;49764;-70
2022/05/16 06:41:39;;;;;;;;;17.25;14.75;;;;;21.55;64.14;101428.00;4976850;28;50621;-69
2022/05/16 06:44:05;;;;;;;;;15.00;15.00;;;;;21.69;64.38;101434.03;4994104;28;49852;-68
2022/05/16 06:46:30;;;;;;;;;13.50;13.50;;;;;21.55;63.69;101402.19;4995572;28;49821;-73
2022/05/16 06:48:56;;;;;;;;;14.75;14.50;;;;;21.78;63.78;101443.69;4998352;28;49915;-70
2022/05/16 06:51:21;;;;;;;;;15.25;14.75;;;;;21.87;62.78;101457.81;4994911;28;50447;-72
2022/05/16 06:53:47;;;;;;;;;17.50;17.50;;;;;21.89;62.79;101452.44;4995434;28;49777;-69
2022/05/16 06:56:13;;;;;;;;;15.50;14.25;;;;;21.89;62.11;101468.47;4995585;28;49717;-74
2022/05/16 06:58:38;;;;;;;;;19.25;18.00;;;;;21.92;62.49;101455.97;4995053;28;49819;-75
2022/05/16 07:01:04;;;;;;;;;17.25;16.25;;;;;22.13;62.46;101473.50;4995300;28;50347;-68
2022/05/16 07:03:30;;;;;;;;;13.50;12.75;;;;;22.22;61.24;101473.34;4976703;28;50445;-74
2022/05/16 07:05:56;;;;;;;;;14.25;13.25;;;;;21.90;60.09;101439.03;4976718;28;49651;-69
2022/05/16 07:08:22;;;;;;;;;14.75;13.50;;;;;22.15;60.40;101474.34;4997955;28;49959;-73
2022/05/16 07:10:50;;;;;;;;;16.00;13.00;;;;;22.15;60.66;101466.34;4994612;28;50590;-70
2022/05/16 07:13:15;;;;;;;;;16.25;15.00;;;;;22.18;59.88;101476.09;4994525;28;49865;-69
2022/05/16 07:15:41;;;;;;;;;11.75;11.00;;;;;22.37;60.04;101506.09;4994935;28;49614;-69
2022/05/16 07:18:07;;;;;;;;;11.50;11.25;;;;;22.36;58.46;101475.78;4995407;28;49615;-74
2022/05/16 07:20:32;;;;;;;;;11.25;9.75;;;;;22.41;57.91;101495.34;4994798;28;50304;-73
2022/05/16 07:22:58;;;;;;;;;11.25;10.00;;;;;22.56;57.68;101515.59;4994813;28;49911;-73
2022/05/16 07:25:28;;;;;;;;;11.00;10.25;;;;;22.48;57.29;101483.59;4995990;28;49754;-70
2022/05/16 07:27:57;;;;;;;;;12.75;10.25;;;;;22.62;56.70;101502.13;4995095;28;49706;-69
2022/05/16 07:30:34;;;;;;;;;14.25;9.75;;;;;22.74;56.24;101517.97;4996843;28;50381;-69
2022/05/16 07:33:02;;;;;;;;;12.50;12.50;;;;;22.84;56.62;101521.38;4992738;28;49705;-71
2022/05/16 07:35:30;;;;;;;;;12.25;9.75;;;;;22.76;56.09;101496.50;4994737;28;49862;-71
2022/05/16 07:37:57;;;;;;;;;9.75;9.00;;;;;22.70;55.57;101483.25;4996271;28;49760;-75
2022/05/16 07:40:25;;;;;;;;;11.25;10.25;;;;;23.00;55.02;101533.59;4999273;28;50441;-70
2022/05/16 07:42:53;;;;;;;;;11.25;9.00;;;;;23.01;54.42;101529.13;4994685;28;49673;-69
2022/05/16 07:45:19;;;;;;;;;11.25;11.00;;;;;22.96;54.60;101547.06;4994530;28;49635;-72
2022/05/16 07:47:45;;;;;;;;;12.00;9.00;;;;;22.77;54.66;101514.34;4994764;28;49766;-70
2022/05/16 07:50:11;;;;;;;;;10.00;10.00;;;;;22.87;55.27;101526.69;5000099;28;49668;-69
2022/05/16 07:52:37;;;;;;;;;11.75;11.75;;;;;22.99;55.27;101539.00;4994449;28;49705;-69
2022/05/16 07:55:04;;;;;;;;;13.25;11.00;;;;;22.97;54.44;101540.78;4994472;28;49752;-69
2022/05/16 07:57:30;;;;;;;;;9.00;8.75;;;;;22.99;54.00;101558.63;4994707;28;49880;-70
2022/05/16 07:59:56;;;;;;;;;13.00;11.00;;;;;22.75;54.23;101513.50;4994074;28;49743;-72
2022/05/16 08:02:21;;;;;;;;;12.00;12.00;;;;;23.03;54.64;101544.25;4994239;28;49915;-76
2022/05/16 08:04:46;;;;;;;;;13.75;13.75;;;;;23.12;54.19;101554.78;4994174;28;50164;-74
2022/05/16 08:07:12;;;;;;;;;9.50;8.75;;;;;23.09;53.85;101540.59;4997057;28;49531;-72
2022/05/16 08:12:38;;;;;;;;;10.50;8.50;;;;;23.32;53.16;101538.34;4999078;28;49865;-71
2022/05/16 08:15:05;;;;;;;;;8.75;8.00;;;;;23.43;52.96;101530.97;4989772;28;50062;-73
2022/05/16 08:17:31;;;;;;;;;10.50;10.50;;;;;23.67;52.77;101560.91;4994346;28;49802;-71
2022/05/16 08:19:57;;;;;;;;;10.75;10.75;;;;;23.83;51.39;101566.81;4993953;28;49757;-72
2022/05/16 08:22:30;;;;;;;;;7.25;7.25;;;;;23.65;51.71;101527.91;4993782;28;49744;-70
2022/05/16 08:24:55;;;;;;;;;12.25;9.25;;;;;23.97;51.61;101568.28;4986367;28;49805;-71
2022/05/16 08:27:21;;;;;;;;;10.75;9.00;;;;;24.09;50.71;101566.25;4994002;28;49832;-71
2022/05/16 08:29:46;;;;;;;;;10.00;9.50;;;;;24.14;50.05;101567.06;4993935;28;49802;-70
2022/05/16 08:32:15;;;;;;;;;8.00;8.00;;;;;23.98;50.08;101540.56;4993978;28;49705;-73
2022/05/16 08:34:42;;;;;;;;;8.50;8.50;;;;;24.25;50.23;101571.25;4976171;28;49845;-68
2022/05/16 08:39:52;;;;;;;;;10.25;9.00;;;;;24.43;49.78;101556.56;4993800;28;50224;-71
2022/05/16 08:42:23;;;;;;;;;9.00;8.00;;;;;24.57;49.10;101577.69;4993608;28;49737;-74
2022/05/16 08:44:59;;;;;;;;;8.50;8.50;;;;;24.60;48.91;101572.22;4993661;28;49651;-69
2022/05/16 08:47:40;;;;;;;;;11.25;8.25;;;;;24.70;48.77;101571.06;4993841;28;49730;-72
2022/05/16 08:50:38;;;;;;;;;9.50;9.50;;;;;24.75;48.47;101563.81;4976006;28;50919;-71
2022/05/16 08:53:11;;;;;;;;;8.75;7.75;;;;;24.85;47.81;101572.50;4987748;28;49995;-76
2022/05/16 08:55:52;;;;;;;;;11.00;9.50;;;;;24.75;48.34;101571.84;4995790;28;49896;-72
2022/05/16 08:58:29;;;;;;;;;11.00;9.75;;;;;24.80;48.40;101578.00;4988385;28;49864;-73
2022/05/16 09:00:59;;;;;;;;;9.25;9.00;;;;;24.80;48.00;101574.41;4992598;28;49869;-72
2022/05/16 09:03:35;;;;;;;;;8.25;7.50;;;;;24.90;48.61;101604.59;4997290;28;49848;-75
2022/05/16 09:06:13;;;;;;;;;7.50;6.50;;;;;24.82;48.06;101613.75;4993492;28;50341;-72
2022/05/16 09:08:38;;;;;;;;;9.75;8.75;;;;;24.73;47.72;101618.47;4995738;28;50031;-75
2022/05/16 09:11:09;;;;;;;;;8.00;7.25;;;;;24.55;47.89;101592.94;4993368;28;49657;-70
2022/05/16 09:13:42;;;;;;;;;10.00;8.00;;;;;24.62;48.45;101613.38;4993500;28;50077;-71
2022/05/16 09:16:11;;;;;;;;;8.00;8.00;;;;;24.60;48.45;101606.25;4995310;28;49545;-71
2022/05/16 09:19:01;;;;;;;;;9.50;8.50;;;;;24.53;48.32;101614.47;4993682;28;49979;-76
2022/05/16 09:21:48;;;;;;;;;11.75;8.75;;;;;24.45;48.78;101619.13;4987043;28;50557;-71
2022/05/16 09:24:28;;;;;;;;;8.50;6.00;;;;;24.32;48.31;101611.38;4993217;28;50376;-75
2022/05/16 09:27:03;;;;;;;;;11.75;9.50;;;;;24.27;47.97;101617.69;4991585;28;50008;-72
2022/05/16 09:29:48;;;;;;;;;8.00;8.00;;;;;24.24;48.25;101627.63;4996881;28;49778;-72
2022/05/16 09:32:30;;;;;;;;;9.75;8.75;;;;;23.98;48.98;101602.25;4996570;28;50722;-71
2022/05/16 09:34:55;;;;;;;;;7.25;7.25;;;;;24.17;49.42;101623.31;4996684;28;49926;-73
2022/05/16 09:37:21;;;;;;;;;8.25;8.25;;;;;24.09;48.53;101614.53;4996394;28;49641;-69
2022/05/16 09:39:50;;;;;;;;;8.75;7.50;;;;;24.26;49.07;101639.19;4997811;28;49821;-76
2022/05/16 09:42:24;;;;;;;;;7.50;7.50;;;;;24.15;49.18;101636.75;5000151;28;50541;-69
2022/05/16 09:45:03;;;;;;;;;13.00;9.50;;;;;24.26;49.36;101640.09;4995011;28;49690;-77
2022/05/16 09:47:29;;;;;;;;;15.25;12.75;;;;;24.37;48.97;101647.03;4996065;28;49891;-70
2022/05/16 09:50:13;;;;;;;;;7.75;7.50;;;;;24.35;48.65;101648.88;4996337;28;49651;-77
2022/05/16 09:52:51;;;;;;;;;12.00;7.75;;;;;24.32;48.62;101635.50;4998507;28;49590;-71
2022/05/16 09:55:27;;;;;;;;;10.50;9.75;;;;;24.39;49.32;101643.41;4990939;28;50096;-71
2022/05/16 09:58:02;;;;;;;;;9.50;8.25;;;;;24.37;49.39;101642.56;4996171;28;49662;-75
2022/05/16 10:00:57;;;;;;;;;8.50;8.50;;;;;24.38;49.14;101647.00;4996410;28;49688;-72
2022/05/16 10:03:41;;;;;;;;;8.50;7.00;;;;;24.35;49.13;101660.50;4988406;28;50732;-71
2022/05/16 10:06:09;;;;;;;;;8.50;8.50;;;;;24.13;49.27;101613.56;4995689;28;49623;-70
2022/05/16 10:08:38;;;;;;;;;7.25;7.25;;;;;24.43;48.50;101661.22;4996350;28;49878;-71
2022/05/16 10:11:11;;;;;;;;;10.50;8.50;;;;;24.49;48.83;101652.13;4996248;28;49552;-71
2022/05/16 10:13:37;;;;;;;;;6.50;6.50;;;;;24.61;48.28;101656.31;4995917;28;50749;-70
2022/05/16 10:16:07;;;;;;;;;8.50;6.50;;;;;24.63;47.97;101641.97;4995802;28;49773;-72
2022/05/16 10:18:39;;;;;;;;;8.00;8.00;;;;;24.85;48.40;101661.13;4994708;28;49590;-71
2022/05/16 10:21:14;;;;;;;;;6.75;6.75;;;;;24.87;47.81;101645.84;4996136;28;49968;-69
2022/05/16 10:23:42;;;;;;;;;7.50;4.50;;;;;24.77;46.73;101623.72;4995626;28;50519;-70
2022/05/16 10:26:19;;;;;;;;;8.25;6.75;;;;;24.78;46.80;101633.53;4994544;28;49718;-70
2022/05/16 10:28:51;;;;;;;;;8.75;7.25;;;;;24.78;47.06;101638.91;4995902;28;49943;-70
2022/05/16 10:34:15;;;;;;;;;5.00;5.00;;;;;24.47;46.31;101653.97;4996286;28;49882;-71
2022/05/16 10:36:47;;;;;;;;;6.00;6.00;;;;;24.11;47.34;101624.31;4997780;28;49749;-77
2022/05/16 10:39:16;;;;;;;;;6.25;5.50;;;;;24.30;46.86;101656.97;4978011;28;49880;-72
2022/05/16 10:41:56;;;;;;;;;5.50;4.50;;;;;24.13;46.89;101637.72;4995548;28;49754;-71
2022/05/16 10:44:48;;;;;;;;;6.50;5.00;;;;;24.38;47.00;101659.53;4995353;28;50424;-76
2022/05/16 10:47:24;;;;;;;;;4.75;4.75;;;;;24.38;46.71;101660.44;4995467;28;49718;-73
2022/05/16 10:50:09;;;;;;;;;7.50;6.25;;;;;24.42;47.05;101650.53;4995328;28;49772;-72
2022/05/16 10:52:43;;;;;;;;;5.50;5.50;;;;;24.32;46.46;101654.31;4991803;28;49954;-74
2022/05/16 10:55:09;;;;;;;;;5.00;5.00;;;;;24.33;47.25;101653.41;4996819;28;49801;-75
2022/05/16 10:57:40;;;;;;;;;6.50;6.50;;;;;24.33;47.01;101656.97;4995635;28;49742;-71
2022/05/16 11:00:18;;;;;;;;;10.00;5.75;;;;;24.35;47.02;101656.94;4998308;28;50432;-70
2022/05/16 11:02:50;;;;;;;;;7.75;6.00;;;;;24.45;45.91;101662.06;4994584;28;49720;-70
2022/05/16 11:05:39;;;;;;;;;4.75;4.75;;;;;24.60;45.60;101651.88;4995056;28;50455;-69
2022/05/16 11:08:11;;;;;;;;;6.00;5.00;;;;;24.64;45.37;101645.53;4995218;28;49692;-74
2022/05/16 11:10:45;;;;;;;;;3.50;3.50;;;;;24.57;44.28;101649.28;4995011;28;49696;-78
2022/05/16 11:13:34;;;;;;;;;4.50;4.00;;;;;24.55;43.59;101652.88;4995363;28;49824;-70
2022/05/16 11:16:14;;;;;;;;;4.00;4.00;;;;;24.51;44.71;101634.19;4982541;28;51576;-69
2022/05/16 11:18:48;;;;;;;;;4.00;4.00;;;;;24.62;44.66;101655.44;4994959;28;49776;-72
2022/05/16 11:22:00;;;;;;;;;5.00;5.00;;;;;24.71;44.72;101660.59;4992665;28;49698;-73
2022/05/16 11:24:31;;;;;;;;;6.25;6.25;;;;;24.72;44.20;101665.03;4934187;28;49755;-74
2022/05/16 11:27:02;;;;;;;;;4.00;2.50;;;;;24.79;44.25;101661.25;4987050;28;50578;-71
2022/05/16 11:29:32;;;;;;;;;4.75;4.75;;;;;24.67;44.30;101621.28;4994882;28;49857;-71
2022/05/16 11:31:58;;;;;;;;;2.50;2.00;;;;;25.09;43.58;101654.28;4997860;28;49444;-71
2022/05/16 11:34:43;;;;;;;;;4.25;4.25;;;;;25.00;43.23;101623.16;4996276;28;49653;-75
2022/05/16 11:37:41;;;;;;;;;6.00;5.00;;;;;25.20;42.81;101624.50;4994601;28;49827;-76
2022/05/16 11:40:14;;;;;;;;;8.00;5.00;;;;;25.35;42.82;101632.13;4999740;28;50696;-69
2022/05/16 11:43:00;;;;;;;;;4.00;4.00;;;;;25.51;42.31;101651.44;4994845;28;49852;-70
2022/05/16 11:45:55;;;;;;;;;4.25;4.25;;;;;25.53;42.46;101647.75;4995144;28;49678;-71
2022/05/16 11:48:43;;;;;;;;;3.25;3.25;;;;;25.47;42.36;101647.91;4994426;28;49696;-71
2022/05/16 11:51:43;;;;;;;;;3.25;3.25;;;;;25.35;42.66;101640.19;4993040;28;49689;-71
2022/05/16 11:54:12;;;;;;;;;4.25;4.25;;;;;25.19;43.35;101606.56;4994452;28;49875;-71
2022/05/16 12:03:06;;;;;;;;;3.00;2.75;;;;;25.24;42.65;101631.53;4972124;28;49829;-77
2022/05/16 12:05:47;;;;;;;;;3.75;3.25;;;;;25.26;43.26;101630.56;4972011;28;49765;-74